sensor_id;sensor_type;location;lat;lon;timestamp;P1;durP1;ratioP1;P2;durP2;ratioP2
4867;SDS011;2448;48.086;10.862;2023-03-16T00:02:09;1.73;;;1.63;;
4867;SDS011;2448;48.086;10.862;2023-03-16T00:04:35;6.70;;;2.30;;
4867;SDS011;2448;48.086;10.862;2023-03-16T00:07:04;1.23;;;1.23;;
4867;SDS011;2448;48.086;10.862;2023-03-16T00:09:29;1.83;;;1.73;;
4867;SDS011;2448;48.086;10.862;2023-03-16T00:11:57;1.67;;;1.67;;
4867;SDS011;2448;48.086;10.862;2023-03-16T00:14:24;1.30;;;1.20;;
4867;SDS011;2448;48.086;10.862;2023-03-16T00:16:49;1.43;;;1.33;;
4867;SDS011;2448;48.086;10.862;2023-03-16T00:19:15;6.77;;;1.90;;
4867;SDS011;2448;48.086;10.862;2023-03-16T00:21:40;1.60;;;1.60;;
4867;SDS011;2448;48.086;10.862;2023-03-16T00:24:05;2.70;;;2.17;;
4867;SDS011;2448;48.086;10.862;2023-03-16T00:26:31;3.63;;;1.50;;
4867;SDS011;2448;48.086;10.862;2023-03-16T00:28:56;2.00;;;1.90;;
4867;SDS011;2448;48.086;10.862;2023-03-16T00:31:21;1.50;;;1.50;;
4867;SDS011;2448;48.086;10.862;2023-03-16T00:33:49;2.03;;;1.83;;
4867;SDS011;2448;48.086;10.862;2023-03-16T00:36:15;1.67;;;1.60;;
4867;SDS011;2448;48.086;10.862;2023-03-16T00:38:41;1.40;;;1.40;;
4867;SDS011;2448;48.086;10.862;2023-03-16T00:41:10;1.47;;;1.47;;
4867;SDS011;2448;48.086;10.862;2023-03-16T00:43:40;2.47;;;2.23;;
4867;SDS011;2448;48.086;10.862;2023-03-16T00:46:06;1.80;;;1.70;;
4867;SDS011;2448;48.086;10.862;2023-03-16T00:48:33;2.13;;;1.73;;
4867;SDS011;2448;48.086;10.862;2023-03-16T00:51:02;1.23;;;1.23;;
4867;SDS011;2448;48.086;10.862;2023-03-16T00:53:31;1.50;;;1.50;;
4867;SDS011;2448;48.086;10.862;2023-03-16T00:55:56;1.10;;;1.10;;
4867;SDS011;2448;48.086;10.862;2023-03-16T00:58:22;1.13;;;1.13;;
4867;SDS011;2448;48.086;10.862;2023-03-16T01:00:49;1.80;;;1.70;;
4867;SDS011;2448;48.086;10.862;2023-03-16T01:03:17;8.43;;;1.30;;
4867;SDS011;2448;48.086;10.862;2023-03-16T01:05:42;1.20;;;1.20;;
4867;SDS011;2448;48.086;10.862;2023-03-16T01:08:08;6.33;;;1.60;;
4867;SDS011;2448;48.086;10.862;2023-03-16T01:10:34;1.63;;;1.53;;
4867;SDS011;2448;48.086;10.862;2023-03-16T01:13:00;3.63;;;1.93;;
4867;SDS011;2448;48.086;10.862;2023-03-16T01:15:30;1.90;;;1.80;;
4867;SDS011;2448;48.086;10.862;2023-03-16T01:17:55;1.70;;;1.60;;
4867;SDS011;2448;48.086;10.862;2023-03-16T01:20:21;1.27;;;1.27;;
4867;SDS011;2448;48.086;10.862;2023-03-16T01:22:47;1.27;;;1.27;;
4867;SDS011;2448;48.086;10.862;2023-03-16T01:25:13;1.90;;;1.83;;
4867;SDS011;2448;48.086;10.862;2023-03-16T01:27:39;2.20;;;1.63;;
4867;SDS011;2448;48.086;10.862;2023-03-16T01:30:06;1.50;;;1.27;;
4867;SDS011;2448;48.086;10.862;2023-03-16T01:32:32;1.60;;;1.27;;
4867;SDS011;2448;48.086;10.862;2023-03-16T01:34:58;1.67;;;1.67;;
4867;SDS011;2448;48.086;10.862;2023-03-16T01:37:24;1.53;;;1.53;;
4867;SDS011;2448;48.086;10.862;2023-03-16T01:39:55;2.03;;;1.80;;
4867;SDS011;2448;48.086;10.862;2023-03-16T01:42:20;1.70;;;1.53;;
4867;SDS011;2448;48.086;10.862;2023-03-16T01:45:04;1.40;;;1.40;;
4867;SDS011;2448;48.086;10.862;2023-03-16T01:47:34;1.43;;;1.43;;
4867;SDS011;2448;48.086;10.862;2023-03-16T01:50:03;2.13;;;1.50;;
4867;SDS011;2448;48.086;10.862;2023-03-16T01:52:32;2.10;;;1.90;;
4867;SDS011;2448;48.086;10.862;2023-03-16T01:55:03;1.50;;;1.50;;
4867;SDS011;2448;48.086;10.862;2023-03-16T01:57:31;2.00;;;1.90;;
4867;SDS011;2448;48.086;10.862;2023-03-16T02:02:54;1.97;;;1.87;;
4867;SDS011;2448;48.086;10.862;2023-03-16T02:05:28;1.60;;;1.60;;
4867;SDS011;2448;48.086;10.862;2023-03-16T02:07:58;1.40;;;1.40;;
4867;SDS011;2448;48.086;10.862;2023-03-16T02:10:25;2.77;;;2.60;;
4867;SDS011;2448;48.086;10.862;2023-03-16T02:12:51;5.43;;;2.13;;
4867;SDS011;2448;48.086;10.862;2023-03-16T02:15:18;2.63;;;1.63;;
4867;SDS011;2448;48.086;10.862;2023-03-16T02:17:44;1.13;;;1.13;;
4867;SDS011;2448;48.086;10.862;2023-03-16T02:22:55;1.83;;;1.73;;
4867;SDS011;2448;48.086;10.862;2023-03-16T02:25:23;3.43;;;1.67;;
4867;SDS011;2448;48.086;10.862;2023-03-16T02:30:24;5.53;;;1.27;;
4867;SDS011;2448;48.086;10.862;2023-03-16T02:33:01;1.53;;;1.43;;
4867;SDS011;2448;48.086;10.862;2023-03-16T02:35:29;3.90;;;1.73;;
4867;SDS011;2448;48.086;10.862;2023-03-16T02:37:55;1.67;;;1.67;;
4867;SDS011;2448;48.086;10.862;2023-03-16T02:40:25;1.93;;;1.80;;
4867;SDS011;2448;48.086;10.862;2023-03-16T02:45:34;3.33;;;1.87;;
4867;SDS011;2448;48.086;10.862;2023-03-16T02:48:01;1.30;;;1.30;;
4867;SDS011;2448;48.086;10.862;2023-03-16T02:50:29;1.50;;;1.40;;
4867;SDS011;2448;48.086;10.862;2023-03-16T02:52:55;1.87;;;1.77;;
4867;SDS011;2448;48.086;10.862;2023-03-16T02:55:20;1.10;;;1.10;;
4867;SDS011;2448;48.086;10.862;2023-03-16T02:57:46;1.40;;;1.40;;
4867;SDS011;2448;48.086;10.862;2023-03-16T03:00:14;5.13;;;1.80;;
4867;SDS011;2448;48.086;10.862;2023-03-16T03:02:44;1.50;;;1.40;;
4867;SDS011;2448;48.086;10.862;2023-03-16T03:05:11;2.07;;;1.97;;
4867;SDS011;2448;48.086;10.862;2023-03-16T03:07:36;2.37;;;1.50;;
4867;SDS011;2448;48.086;10.862;2023-03-16T03:10:05;2.30;;;2.10;;
4867;SDS011;2448;48.086;10.862;2023-03-16T03:12:31;1.80;;;1.77;;
4867;SDS011;2448;48.086;10.862;2023-03-16T03:14:56;1.50;;;1.50;;
4867;SDS011;2448;48.086;10.862;2023-03-16T03:17:22;1.93;;;1.83;;
4867;SDS011;2448;48.086;10.862;2023-03-16T03:19:58;2.20;;;2.00;;
4867;SDS011;2448;48.086;10.862;2023-03-16T03:22:25;2.00;;;1.90;;
4867;SDS011;2448;48.086;10.862;2023-03-16T03:24:51;1.97;;;1.87;;
4867;SDS011;2448;48.086;10.862;2023-03-16T03:27:16;2.33;;;2.13;;
4867;SDS011;2448;48.086;10.862;2023-03-16T03:29:42;1.73;;;1.63;;
4867;SDS011;2448;48.086;10.862;2023-03-16T03:32:08;1.83;;;1.73;;
4867;SDS011;2448;48.086;10.862;2023-03-16T03:34:34;2.00;;;1.60;;
4867;SDS011;2448;48.086;10.862;2023-03-16T03:36:59;1.70;;;1.60;;
4867;SDS011;2448;48.086;10.862;2023-03-16T03:39:25;1.40;;;1.30;;
4867;SDS011;2448;48.086;10.862;2023-03-16T03:41:51;1.83;;;1.73;;
4867;SDS011;2448;48.086;10.862;2023-03-16T03:44:20;1.33;;;1.33;;
4867;SDS011;2448;48.086;10.862;2023-03-16T03:46:46;1.87;;;1.73;;
4867;SDS011;2448;48.086;10.862;2023-03-16T03:49:11;2.40;;;2.20;;
4867;SDS011;2448;48.086;10.862;2023-03-16T03:51:37;2.30;;;2.20;;
4867;SDS011;2448;48.086;10.862;2023-03-16T03:54:06;1.97;;;1.90;;
4867;SDS011;2448;48.086;10.862;2023-03-16T03:56:46;1.83;;;1.73;;
4867;SDS011;2448;48.086;10.862;2023-03-16T03:59:14;1.40;;;1.40;;
4867;SDS011;2448;48.086;10.862;2023-03-16T04:01:58;1.90;;;1.67;;
4867;SDS011;2448;48.086;10.862;2023-03-16T04:04:29;1.80;;;1.73;;
4867;SDS011;2448;48.086;10.862;2023-03-16T04:06:54;2.00;;;1.23;;
4867;SDS011;2448;48.086;10.862;2023-03-16T04:09:21;1.97;;;1.97;;
4867;SDS011;2448;48.086;10.862;2023-03-16T04:11:47;1.83;;;1.77;;
4867;SDS011;2448;48.086;10.862;2023-03-16T04:14:12;1.13;;;1.13;;
4867;SDS011;2448;48.086;10.862;2023-03-16T04:16:38;4.33;;;3.93;;
4867;SDS011;2448;48.086;10.862;2023-03-16T04:19:04;3.53;;;2.53;;
4867;SDS011;2448;48.086;10.862;2023-03-16T04:21:29;2.17;;;2.10;;
4867;SDS011;2448;48.086;10.862;2023-03-16T04:23:55;2.00;;;1.90;;
4867;SDS011;2448;48.086;10.862;2023-03-16T04:26:28;1.53;;;1.53;;
4867;SDS011;2448;48.086;10.862;2023-03-16T04:28:53;1.93;;;1.80;;
4867;SDS011;2448;48.086;10.862;2023-03-16T04:31:19;2.20;;;2.10;;
4867;SDS011;2448;48.086;10.862;2023-03-16T04:33:45;5.30;;;2.00;;
4867;SDS011;2448;48.086;10.862;2023-03-16T04:36:11;6.47;;;2.77;;
4867;SDS011;2448;48.086;10.862;2023-03-16T04:38:37;2.07;;;1.90;;
4867;SDS011;2448;48.086;10.862;2023-03-16T04:41:03;1.70;;;1.60;;
4867;SDS011;2448;48.086;10.862;2023-03-16T04:43:33;2.77;;;2.63;;
4867;SDS011;2448;48.086;10.862;2023-03-16T04:46:03;2.00;;;1.90;;
4867;SDS011;2448;48.086;10.862;2023-03-16T04:48:31;2.20;;;2.10;;
4867;SDS011;2448;48.086;10.862;2023-03-16T04:50:57;1.87;;;1.87;;
4867;SDS011;2448;48.086;10.862;2023-03-16T04:53:24;2.47;;;2.37;;
4867;SDS011;2448;48.086;10.862;2023-03-16T04:55:56;3.17;;;2.73;;
4867;SDS011;2448;48.086;10.862;2023-03-16T04:58:21;2.83;;;2.20;;
4867;SDS011;2448;48.086;10.862;2023-03-16T05:00:50;2.67;;;2.47;;
4867;SDS011;2448;48.086;10.862;2023-03-16T05:03:21;2.67;;;2.47;;
4867;SDS011;2448;48.086;10.862;2023-03-16T05:05:46;1.87;;;1.77;;
4867;SDS011;2448;48.086;10.862;2023-03-16T05:08:13;1.97;;;1.87;;
4867;SDS011;2448;48.086;10.862;2023-03-16T05:10:41;2.43;;;2.30;;
4867;SDS011;2448;48.086;10.862;2023-03-16T05:13:07;1.90;;;1.80;;
4867;SDS011;2448;48.086;10.862;2023-03-16T05:15:32;1.90;;;1.90;;
4867;SDS011;2448;48.086;10.862;2023-03-16T05:18:05;2.93;;;1.73;;
4867;SDS011;2448;48.086;10.862;2023-03-16T05:20:30;2.67;;;2.47;;
4867;SDS011;2448;48.086;10.862;2023-03-16T05:22:58;2.30;;;2.20;;
4867;SDS011;2448;48.086;10.862;2023-03-16T05:25:27;3.03;;;2.00;;
4867;SDS011;2448;48.086;10.862;2023-03-16T05:27:54;3.00;;;2.70;;
4867;SDS011;2448;48.086;10.862;2023-03-16T05:30:31;2.80;;;2.60;;
4867;SDS011;2448;48.086;10.862;2023-03-16T05:32:59;5.43;;;3.00;;
4867;SDS011;2448;48.086;10.862;2023-03-16T05:35:26;2.40;;;2.20;;
4867;SDS011;2448;48.086;10.862;2023-03-16T05:37:56;2.90;;;2.37;;
4867;SDS011;2448;48.086;10.862;2023-03-16T05:40:21;2.10;;;2.00;;
4867;SDS011;2448;48.086;10.862;2023-03-16T05:42:59;2.13;;;2.03;;
4867;SDS011;2448;48.086;10.862;2023-03-16T05:45:26;2.40;;;2.20;;
4867;SDS011;2448;48.086;10.862;2023-03-16T05:48:11;2.33;;;2.23;;
4867;SDS011;2448;48.086;10.862;2023-03-16T05:50:42;2.40;;;2.23;;
4867;SDS011;2448;48.086;10.862;2023-03-16T05:53:08;2.77;;;2.57;;
4867;SDS011;2448;48.086;10.862;2023-03-16T05:55:35;3.57;;;2.57;;
4867;SDS011;2448;48.086;10.862;2023-03-16T05:58:03;2.47;;;2.27;;
4867;SDS011;2448;48.086;10.862;2023-03-16T06:00:29;1.80;;;1.70;;
4867;SDS011;2448;48.086;10.862;2023-03-16T06:03:06;7.50;;;3.30;;
4867;SDS011;2448;48.086;10.862;2023-03-16T06:05:34;3.93;;;2.23;;
4867;SDS011;2448;48.086;10.862;2023-03-16T06:08:00;2.93;;;2.70;;
4867;SDS011;2448;48.086;10.862;2023-03-16T06:10:27;2.70;;;2.47;;
4867;SDS011;2448;48.086;10.862;2023-03-16T06:12:53;4.23;;;1.90;;
4867;SDS011;2448;48.086;10.862;2023-03-16T06:15:19;2.43;;;2.23;;
4867;SDS011;2448;48.086;10.862;2023-03-16T06:17:49;1.97;;;1.87;;
4867;SDS011;2448;48.086;10.862;2023-03-16T06:20:15;2.60;;;2.50;;
4867;SDS011;2448;48.086;10.862;2023-03-16T06:22:43;2.10;;;2.00;;
4867;SDS011;2448;48.086;10.862;2023-03-16T06:25:09;3.07;;;2.90;;
4867;SDS011;2448;48.086;10.862;2023-03-16T06:27:35;4.03;;;2.63;;
4867;SDS011;2448;48.086;10.862;2023-03-16T06:30:14;1.97;;;1.87;;
4867;SDS011;2448;48.086;10.862;2023-03-16T06:32:40;2.53;;;2.43;;
4867;SDS011;2448;48.086;10.862;2023-03-16T06:35:09;2.80;;;2.60;;
4867;SDS011;2448;48.086;10.862;2023-03-16T06:37:38;3.20;;;2.90;;
4867;SDS011;2448;48.086;10.862;2023-03-16T06:40:17;2.33;;;2.23;;
4867;SDS011;2448;48.086;10.862;2023-03-16T06:42:43;2.53;;;2.43;;
4867;SDS011;2448;48.086;10.862;2023-03-16T06:45:11;2.97;;;2.73;;
4867;SDS011;2448;48.086;10.862;2023-03-16T06:47:37;2.73;;;2.63;;
4867;SDS011;2448;48.086;10.862;2023-03-16T06:50:03;4.20;;;2.67;;
4867;SDS011;2448;48.086;10.862;2023-03-16T06:52:29;2.53;;;2.43;;
4867;SDS011;2448;48.086;10.862;2023-03-16T06:54:54;2.40;;;2.20;;
4867;SDS011;2448;48.086;10.862;2023-03-16T06:57:21;3.67;;;3.30;;
4867;SDS011;2448;48.086;10.862;2023-03-16T06:59:48;4.30;;;3.10;;
4867;SDS011;2448;48.086;10.862;2023-03-16T07:02:13;3.73;;;3.43;;
4867;SDS011;2448;48.086;10.862;2023-03-16T07:04:40;3.23;;;2.93;;
4867;SDS011;2448;48.086;10.862;2023-03-16T07:07:06;15.80;;;3.20;;
4867;SDS011;2448;48.086;10.862;2023-03-16T07:09:31;3.63;;;3.33;;
4867;SDS011;2448;48.086;10.862;2023-03-16T07:11:57;4.43;;;3.07;;
4867;SDS011;2448;48.086;10.862;2023-03-16T07:14:22;4.50;;;4.07;;
4867;SDS011;2448;48.086;10.862;2023-03-16T07:16:50;3.53;;;3.23;;
4867;SDS011;2448;48.086;10.862;2023-03-16T07:19:17;6.67;;;3.40;;
4867;SDS011;2448;48.086;10.862;2023-03-16T07:21:43;4.67;;;3.70;;
4867;SDS011;2448;48.086;10.862;2023-03-16T07:24:13;4.73;;;3.43;;
4867;SDS011;2448;48.086;10.862;2023-03-16T07:26:40;10.90;;;3.77;;
4867;SDS011;2448;48.086;10.862;2023-03-16T07:29:06;3.60;;;3.30;;
4867;SDS011;2448;48.086;10.862;2023-03-16T07:31:33;4.10;;;3.43;;
4867;SDS011;2448;48.086;10.862;2023-03-16T07:34:01;4.50;;;3.97;;
4867;SDS011;2448;48.086;10.862;2023-03-16T07:36:35;10.80;;;4.20;;
4867;SDS011;2448;48.086;10.862;2023-03-16T07:39:01;3.93;;;3.33;;
4867;SDS011;2448;48.086;10.862;2023-03-16T07:41:26;3.77;;;3.47;;
4867;SDS011;2448;48.086;10.862;2023-03-16T07:43:58;3.90;;;3.60;;
4867;SDS011;2448;48.086;10.862;2023-03-16T07:46:24;3.93;;;3.33;;
4867;SDS011;2448;48.086;10.862;2023-03-16T07:48:49;4.40;;;3.47;;
4867;SDS011;2448;48.086;10.862;2023-03-16T07:51:15;4.23;;;3.70;;
4867;SDS011;2448;48.086;10.862;2023-03-16T07:53:44;11.20;;;4.33;;
4867;SDS011;2448;48.086;10.862;2023-03-16T07:56:15;4.77;;;3.20;;
4867;SDS011;2448;48.086;10.862;2023-03-16T07:58:43;4.80;;;4.17;;
4867;SDS011;2448;48.086;10.862;2023-03-16T08:01:09;5.87;;;3.90;;
4867;SDS011;2448;48.086;10.862;2023-03-16T08:03:35;3.83;;;3.53;;
4867;SDS011;2448;48.086;10.862;2023-03-16T08:06:01;7.23;;;4.20;;
4867;SDS011;2448;48.086;10.862;2023-03-16T08:08:26;4.23;;;3.87;;
4867;SDS011;2448;48.086;10.862;2023-03-16T08:10:52;3.27;;;3.00;;
4867;SDS011;2448;48.086;10.862;2023-03-16T08:13:19;3.87;;;3.47;;
4867;SDS011;2448;48.086;10.862;2023-03-16T08:15:47;6.40;;;3.53;;
4867;SDS011;2448;48.086;10.862;2023-03-16T08:18:25;4.00;;;3.70;;
4867;SDS011;2448;48.086;10.862;2023-03-16T08:20:51;3.93;;;3.50;;
4867;SDS011;2448;48.086;10.862;2023-03-16T08:23:17;6.30;;;3.67;;
4867;SDS011;2448;48.086;10.862;2023-03-16T08:25:42;4.40;;;3.83;;
4867;SDS011;2448;48.086;10.862;2023-03-16T08:28:11;4.03;;;3.47;;
4867;SDS011;2448;48.086;10.862;2023-03-16T08:30:42;3.90;;;3.50;;
4867;SDS011;2448;48.086;10.862;2023-03-16T08:33:23;9.50;;;3.93;;
4867;SDS011;2448;48.086;10.862;2023-03-16T08:35:50;3.57;;;3.23;;
4867;SDS011;2448;48.086;10.862;2023-03-16T08:38:17;3.93;;;3.63;;
4867;SDS011;2448;48.086;10.862;2023-03-16T08:40:44;3.73;;;3.00;;
4867;SDS011;2448;48.086;10.862;2023-03-16T08:43:14;6.07;;;3.63;;
4867;SDS011;2448;48.086;10.862;2023-03-16T08:45:40;3.87;;;3.30;;
4867;SDS011;2448;48.086;10.862;2023-03-16T08:48:07;3.60;;;3.23;;
4867;SDS011;2448;48.086;10.862;2023-03-16T08:50:32;4.90;;;3.40;;
4867;SDS011;2448;48.086;10.862;2023-03-16T08:52:58;4.60;;;2.67;;
4867;SDS011;2448;48.086;10.862;2023-03-16T08:55:23;3.60;;;3.30;;
4867;SDS011;2448;48.086;10.862;2023-03-16T08:57:49;3.13;;;2.93;;
4867;SDS011;2448;48.086;10.862;2023-03-16T09:00:14;3.30;;;3.00;;
4867;SDS011;2448;48.086;10.862;2023-03-16T09:02:40;3.40;;;3.07;;
4867;SDS011;2448;48.086;10.862;2023-03-16T09:05:09;3.73;;;3.43;;
4867;SDS011;2448;48.086;10.862;2023-03-16T09:07:35;4.50;;;3.60;;
4867;SDS011;2448;48.086;10.862;2023-03-16T09:10:01;3.13;;;2.93;;
4867;SDS011;2448;48.086;10.862;2023-03-16T09:12:30;3.17;;;2.87;;
4867;SDS011;2448;48.086;10.862;2023-03-16T09:14:55;3.00;;;2.80;;
4867;SDS011;2448;48.086;10.862;2023-03-16T09:17:21;3.40;;;2.90;;
4867;SDS011;2448;48.086;10.862;2023-03-16T09:19:46;4.23;;;2.97;;
4867;SDS011;2448;48.086;10.862;2023-03-16T09:22:12;4.53;;;2.90;;
4867;SDS011;2448;48.086;10.862;2023-03-16T09:24:37;5.47;;;3.10;;
4867;SDS011;2448;48.086;10.862;2023-03-16T09:27:03;3.30;;;3.10;;
4867;SDS011;2448;48.086;10.862;2023-03-16T09:29:29;4.20;;;2.87;;
4867;SDS011;2448;48.086;10.862;2023-03-16T09:31:54;1.97;;;1.87;;
4867;SDS011;2448;48.086;10.862;2023-03-16T09:34:20;2.73;;;2.53;;
4867;SDS011;2448;48.086;10.862;2023-03-16T09:36:45;5.07;;;3.10;;
4867;SDS011;2448;48.086;10.862;2023-03-16T09:39:11;2.83;;;2.63;;
4867;SDS011;2448;48.086;10.862;2023-03-16T09:46:33;4.47;;;3.17;;
4867;SDS011;2448;48.086;10.862;2023-03-16T09:49:00;3.47;;;2.90;;
4867;SDS011;2448;48.086;10.862;2023-03-16T09:51:31;6.00;;;3.10;;
4867;SDS011;2448;48.086;10.862;2023-03-16T09:54:00;2.40;;;2.13;;
4867;SDS011;2448;48.086;10.862;2023-03-16T09:56:32;9.73;;;2.27;;
4867;SDS011;2448;48.086;10.862;2023-03-16T09:59:17;2.20;;;2.10;;
4867;SDS011;2448;48.086;10.862;2023-03-16T10:04:45;11.57;;;2.40;;
4867;SDS011;2448;48.086;10.862;2023-03-16T10:12:40;2.10;;;1.93;;
4867;SDS011;2448;48.086;10.862;2023-03-16T10:15:17;2.20;;;2.00;;
4867;SDS011;2448;48.086;10.862;2023-03-16T10:17:49;1.93;;;1.83;;
4867;SDS011;2448;48.086;10.862;2023-03-16T10:20:18;1.93;;;1.73;;
4867;SDS011;2448;48.086;10.862;2023-03-16T10:22:46;1.90;;;1.80;;
4867;SDS011;2448;48.086;10.862;2023-03-16T10:27:41;2.40;;;2.20;;
4867;SDS011;2448;48.086;10.862;2023-03-16T10:30:21;1.80;;;1.70;;
4867;SDS011;2448;48.086;10.862;2023-03-16T10:32:47;2.90;;;2.00;;
4867;SDS011;2448;48.086;10.862;2023-03-16T10:37:56;2.47;;;2.27;;
4867;SDS011;2448;48.086;10.862;2023-03-16T10:40:22;2.17;;;2.07;;
4867;SDS011;2448;48.086;10.862;2023-03-16T10:42:48;1.60;;;1.50;;
4867;SDS011;2448;48.086;10.862;2023-03-16T10:45:23;2.23;;;2.03;;
4867;SDS011;2448;48.086;10.862;2023-03-16T10:47:51;3.40;;;2.20;;
4867;SDS011;2448;48.086;10.862;2023-03-16T10:50:21;2.27;;;2.17;;
4867;SDS011;2448;48.086;10.862;2023-03-16T10:52:47;1.80;;;1.70;;
4867;SDS011;2448;48.086;10.862;2023-03-16T10:57:46;1.60;;;1.50;;
4867;SDS011;2448;48.086;10.862;2023-03-16T11:00:14;1.90;;;1.80;;
4867;SDS011;2448;48.086;10.862;2023-03-16T11:02:40;1.90;;;1.80;;
4867;SDS011;2448;48.086;10.862;2023-03-16T11:07:49;1.83;;;1.73;;
4867;SDS011;2448;48.086;10.862;2023-03-16T11:10:27;2.60;;;2.40;;
4867;SDS011;2448;48.086;10.862;2023-03-16T11:12:53;2.40;;;2.20;;
4867;SDS011;2448;48.086;10.862;2023-03-16T11:15:19;2.00;;;1.90;;
4867;SDS011;2448;48.086;10.862;2023-03-16T11:17:48;2.83;;;2.13;;
4867;SDS011;2448;48.086;10.862;2023-03-16T11:20:22;2.17;;;2.03;;
4867;SDS011;2448;48.086;10.862;2023-03-16T11:22:50;2.30;;;2.20;;
4867;SDS011;2448;48.086;10.862;2023-03-16T11:25:32;2.63;;;2.43;;
4867;SDS011;2448;48.086;10.862;2023-03-16T11:28:05;1.77;;;1.67;;
4867;SDS011;2448;48.086;10.862;2023-03-16T11:33:01;2.00;;;1.90;;
4867;SDS011;2448;48.086;10.862;2023-03-16T11:35:36;2.00;;;1.80;;
4867;SDS011;2448;48.086;10.862;2023-03-16T11:40:35;2.47;;;2.27;;
4867;SDS011;2448;48.086;10.862;2023-03-16T11:46:32;2.17;;;2.07;;
4867;SDS011;2448;48.086;10.862;2023-03-16T11:51:33;2.20;;;2.00;;
4867;SDS011;2448;48.086;10.862;2023-03-16T11:54:02;1.80;;;1.70;;
4867;SDS011;2448;48.086;10.862;2023-03-16T12:17:12;4.37;;;3.07;;
4867;SDS011;2448;48.086;10.862;2023-03-16T12:22:11;2.40;;;2.20;;
4867;SDS011;2448;48.086;10.862;2023-03-16T12:24:42;1.80;;;1.50;;
4867;SDS011;2448;48.086;10.862;2023-03-16T12:27:13;1.90;;;1.80;;
4867;SDS011;2448;48.086;10.862;2023-03-16T12:32:18;1.70;;;1.60;;
4867;SDS011;2448;48.086;10.862;2023-03-16T12:34:47;1.60;;;1.50;;
4867;SDS011;2448;48.086;10.862;2023-03-16T12:37:26;1.30;;;1.27;;
4867;SDS011;2448;48.086;10.862;2023-03-16T12:42:51;1.27;;;1.27;;
4867;SDS011;2448;48.086;10.862;2023-03-16T12:45:55;2.20;;;2.10;;
4867;SDS011;2448;48.086;10.862;2023-03-16T12:48:14;1.67;;;1.57;;
4867;SDS011;2448;48.086;10.862;2023-03-16T12:50:50;2.70;;;1.80;;
4867;SDS011;2448;48.086;10.862;2023-03-16T12:55:51;6.50;;;2.30;;
4867;SDS011;2448;48.086;10.862;2023-03-16T12:58:17;3.50;;;1.90;;
4867;SDS011;2448;48.086;10.862;2023-03-16T13:00:42;2.03;;;1.93;;
4867;SDS011;2448;48.086;10.862;2023-03-16T13:03:15;1.50;;;1.40;;
4867;SDS011;2448;48.086;10.862;2023-03-16T13:05:45;1.70;;;1.60;;
4867;SDS011;2448;48.086;10.862;2023-03-16T13:08:15;1.30;;;1.20;;
4867;SDS011;2448;48.086;10.862;2023-03-16T13:10:41;1.97;;;1.50;;
4867;SDS011;2448;48.086;10.862;2023-03-16T13:13:08;1.20;;;1.20;;
4867;SDS011;2448;48.086;10.862;2023-03-16T13:15:35;3.03;;;1.30;;
4867;SDS011;2448;48.086;10.862;2023-03-16T13:18:04;1.60;;;1.50;;
4867;SDS011;2448;48.086;10.862;2023-03-16T13:20:34;1.70;;;1.60;;
4867;SDS011;2448;48.086;10.862;2023-03-16T13:23:08;1.60;;;1.50;;
4867;SDS011;2448;48.086;10.862;2023-03-16T13:25:37;1.70;;;1.60;;
4867;SDS011;2448;48.086;10.862;2023-03-16T13:28:04;1.80;;;1.40;;
4867;SDS011;2448;48.086;10.862;2023-03-16T13:30:31;1.70;;;1.60;;
4867;SDS011;2448;48.086;10.862;2023-03-16T13:35:41;13.83;;;1.80;;
4867;SDS011;2448;48.086;10.862;2023-03-16T13:38:12;2.50;;;1.03;;
4867;SDS011;2448;48.086;10.862;2023-03-16T13:40:43;1.30;;;1.30;;
4867;SDS011;2448;48.086;10.862;2023-03-16T13:43:14;1.60;;;1.50;;
4867;SDS011;2448;48.086;10.862;2023-03-16T13:45:40;1.50;;;1.40;;
4867;SDS011;2448;48.086;10.862;2023-03-16T13:48:05;2.90;;;1.10;;
4867;SDS011;2448;48.086;10.862;2023-03-16T13:50:31;1.83;;;1.60;;
4867;SDS011;2448;48.086;10.862;2023-03-16T13:53:01;1.63;;;1.40;;
4867;SDS011;2448;48.086;10.862;2023-03-16T13:55:31;1.27;;;1.27;;
4867;SDS011;2448;48.086;10.862;2023-03-16T13:57:58;1.80;;;1.60;;
4867;SDS011;2448;48.086;10.862;2023-03-16T14:00:25;1.10;;;1.10;;
4867;SDS011;2448;48.086;10.862;2023-03-16T14:02:55;1.53;;;1.43;;
4867;SDS011;2448;48.086;10.862;2023-03-16T14:05:24;1.50;;;1.40;;
4867;SDS011;2448;48.086;10.862;2023-03-16T14:07:50;1.60;;;1.20;;
4867;SDS011;2448;48.086;10.862;2023-03-16T14:10:16;1.37;;;1.37;;
4867;SDS011;2448;48.086;10.862;2023-03-16T14:12:52;1.70;;;1.60;;
4867;SDS011;2448;48.086;10.862;2023-03-16T14:15:19;2.10;;;1.70;;
4867;SDS011;2448;48.086;10.862;2023-03-16T14:17:44;3.00;;;1.73;;
4867;SDS011;2448;48.086;10.862;2023-03-16T14:20:16;2.03;;;1.83;;
4867;SDS011;2448;48.086;10.862;2023-03-16T14:22:43;5.23;;;1.60;;
4867;SDS011;2448;48.086;10.862;2023-03-16T14:25:09;1.57;;;1.57;;
4867;SDS011;2448;48.086;10.862;2023-03-16T14:32:39;1.80;;;1.73;;
4867;SDS011;2448;48.086;10.862;2023-03-16T14:35:15;1.80;;;1.70;;
4867;SDS011;2448;48.086;10.862;2023-03-16T14:37:42;4.13;;;1.80;;
4867;SDS011;2448;48.086;10.862;2023-03-16T14:40:20;1.70;;;1.60;;
4867;SDS011;2448;48.086;10.862;2023-03-16T14:42:45;2.17;;;1.97;;
4867;SDS011;2448;48.086;10.862;2023-03-16T14:45:11;1.97;;;1.77;;
4867;SDS011;2448;48.086;10.862;2023-03-16T14:47:40;3.53;;;1.40;;
4867;SDS011;2448;48.086;10.862;2023-03-16T14:50:07;3.37;;;1.70;;
4867;SDS011;2448;48.086;10.862;2023-03-16T14:52:33;1.80;;;1.70;;
4867;SDS011;2448;48.086;10.862;2023-03-16T14:55:00;14.30;;;1.87;;
4867;SDS011;2448;48.086;10.862;2023-03-16T14:57:33;1.70;;;1.60;;
4867;SDS011;2448;48.086;10.862;2023-03-16T14:59:58;2.47;;;2.33;;
4867;SDS011;2448;48.086;10.862;2023-03-16T15:02:24;2.60;;;2.43;;
4867;SDS011;2448;48.086;10.862;2023-03-16T15:04:51;1.87;;;1.77;;
4867;SDS011;2448;48.086;10.862;2023-03-16T15:07:20;3.83;;;1.83;;
4867;SDS011;2448;48.086;10.862;2023-03-16T15:09:46;4.40;;;2.00;;
4867;SDS011;2448;48.086;10.862;2023-03-16T15:12:14;1.73;;;1.63;;
4867;SDS011;2448;48.086;10.862;2023-03-16T15:14:40;2.10;;;2.00;;
4867;SDS011;2448;48.086;10.862;2023-03-16T15:17:24;2.10;;;2.00;;
4867;SDS011;2448;48.086;10.862;2023-03-16T15:19:49;2.60;;;2.27;;
4867;SDS011;2448;48.086;10.862;2023-03-16T15:22:14;2.37;;;2.00;;
4867;SDS011;2448;48.086;10.862;2023-03-16T15:24:42;2.57;;;2.33;;
4867;SDS011;2448;48.086;10.862;2023-03-16T15:27:21;2.10;;;2.00;;
4867;SDS011;2448;48.086;10.862;2023-03-16T15:29:46;2.33;;;2.13;;
4867;SDS011;2448;48.086;10.862;2023-03-16T15:32:12;2.50;;;2.37;;
4867;SDS011;2448;48.086;10.862;2023-03-16T15:34:39;1.93;;;1.83;;
4867;SDS011;2448;48.086;10.862;2023-03-16T15:37:05;2.10;;;2.00;;
4867;SDS011;2448;48.086;10.862;2023-03-16T15:39:30;1.40;;;1.30;;
4867;SDS011;2448;48.086;10.862;2023-03-16T15:41:56;1.40;;;1.40;;
4867;SDS011;2448;48.086;10.862;2023-03-16T15:44:21;1.50;;;1.50;;
4867;SDS011;2448;48.086;10.862;2023-03-16T15:46:46;1.90;;;1.80;;
4867;SDS011;2448;48.086;10.862;2023-03-16T15:49:12;1.90;;;1.80;;
4867;SDS011;2448;48.086;10.862;2023-03-16T15:51:38;2.57;;;2.37;;
4867;SDS011;2448;48.086;10.862;2023-03-16T15:54:03;1.70;;;1.60;;
4867;SDS011;2448;48.086;10.862;2023-03-16T15:56:31;2.90;;;2.10;;
4867;SDS011;2448;48.086;10.862;2023-03-16T15:58:59;6.73;;;1.60;;
4867;SDS011;2448;48.086;10.862;2023-03-16T16:01:27;1.83;;;1.70;;
4867;SDS011;2448;48.086;10.862;2023-03-16T16:04:05;2.13;;;1.70;;
4867;SDS011;2448;48.086;10.862;2023-03-16T16:06:31;1.63;;;1.60;;
4867;SDS011;2448;48.086;10.862;2023-03-16T16:08:56;2.50;;;1.60;;
4867;SDS011;2448;48.086;10.862;2023-03-16T16:11:25;1.90;;;1.80;;
4867;SDS011;2448;48.086;10.862;2023-03-16T16:13:51;1.77;;;1.67;;
4867;SDS011;2448;48.086;10.862;2023-03-16T16:16:18;2.07;;;1.83;;
4867;SDS011;2448;48.086;10.862;2023-03-16T16:18:44;1.53;;;1.43;;
4867;SDS011;2448;48.086;10.862;2023-03-16T16:21:16;2.23;;;2.13;;
4867;SDS011;2448;48.086;10.862;2023-03-16T16:23:42;1.90;;;1.80;;
4867;SDS011;2448;48.086;10.862;2023-03-16T16:26:12;2.67;;;2.47;;
4867;SDS011;2448;48.086;10.862;2023-03-16T16:28:40;4.43;;;1.67;;
4867;SDS011;2448;48.086;10.862;2023-03-16T16:31:07;2.20;;;2.10;;